Time;durP1;ratioP1;P1;durP2;ratioP2;P2;SDS_P1;SDS_P2;PMS_P1;PMS_P2;Temp;Humidity;BMP_temperature;BMP_pressure;BME280_temperature;BME280_humidity;BME280_pressure;Samples;Min_cycle;Max_cycle;Signal;HPM_P1;HPM_P2
2021/01/13 00:00:08;;;;;;;8.38;2.05;;;2.00;99.90;;;;;;5092132;28;20032;-69
2021/01/13 00:02:34;;;;;;;9.52;1.60;;;2.10;99.90;;;;;;5091411;28;20028;-69
2021/01/13 00:05:00;;;;;;;7.47;1.45;;;2.10;99.90;;;;;;5091266;28;20036;-69
2021/01/13 00:07:26;;;;;;;8.13;1.33;;;2.10;99.90;;;;;;5091426;28;20447;-69
2021/01/13 00:09:51;;;;;;;9.27;2.53;;;2.10;99.90;;;;;;5091865;28;20039;-69
2021/01/13 00:12:17;;;;;;;19.85;4.00;;;2.20;99.90;;;;;;5091086;28;20143;-69
2021/01/13 00:14:43;;;;;;;7.82;1.17;;;2.20;99.90;;;;;;5079432;28;20345;-69
2021/01/13 00:17:09;;;;;;;12.13;1.38;;;2.30;99.90;;;;;;5090481;28;20104;-68
2021/01/13 00:19:34;;;;;;;8.73;1.38;;;2.20;99.90;;;;;;5091083;28;20123;-69
2021/01/13 00:22:00;;;;;;;4.35;1.00;;;2.20;99.90;;;;;;5091422;28;20119;-69
2021/01/13 00:24:25;;;;;;;9.27;1.40;;;2.20;99.90;;;;;;5090777;28;20036;-69
2021/01/13 00:26:57;;;;;;;6.47;1.40;;;2.20;99.90;;;;;;5090501;28;20060;-69
2021/01/13 00:29:22;;;;;;;13.02;1.85;;;2.30;99.90;;;;;;5091237;28;20055;-67
2021/01/13 00:31:48;;;;;;;12.85;1.92;;;2.30;99.90;;;;;;5091474;28;20059;-68
2021/01/13 00:34:15;;;;;;;8.98;1.42;;;2.30;99.90;;;;;;5089746;28;20094;-68
2021/01/13 00:36:40;;;;;;;7.85;1.08;;;2.30;99.90;;;;;;5090937;28;20063;-68
2021/01/13 00:39:07;;;;;;;5.97;0.77;;;2.50;99.90;;;;;;5090781;28;20052;-68
2021/01/13 00:41:36;;;;;;;9.05;0.90;;;2.70;99.90;;;;;;5090030;28;20554;-68
2021/01/13 00:44:01;;;;;;;6.43;1.42;;;2.70;99.90;;;;;;5090800;28;20035;-68
2021/01/13 00:46:38;;;;;;;4.35;0.82;;;2.70;99.90;;;;;;5090683;28;20349;-68
2021/01/13 00:49:05;;;;;;;14.85;1.20;;;2.60;99.90;;;;;;5089885;28;20030;-68
2021/01/13 00:51:36;;;;;;;4.95;1.17;;;2.70;99.90;;;;;;5090700;28;20016;-68
2021/01/13 00:54:03;;;;;;;8.07;0.88;;;2.70;99.90;;;;;;5090115;28;20056;-68
2021/01/13 00:56:28;;;;;;;7.47;0.70;;;2.60;99.90;;;;;;5076505;28;20053;-68
2021/01/13 00:58:56;;;;;;;8.32;0.85;;;2.60;99.90;;;;;;5090955;28;20024;-68
2021/01/13 01:01:25;;;;;;;3.38;1.10;;;2.50;99.90;;;;;;5089758;28;20027;-68
2021/01/13 01:03:52;;;;;;;5.07;1.10;;;2.40;99.90;;;;;;5090582;28;20112;-68
2021/01/13 01:06:18;;;;;;;4.32;0.93;;;2.30;99.90;;;;;;5090514;28;20064;-68
2021/01/13 01:08:44;;;;;;;9.48;2.60;;;2.30;99.90;;;;;;5092708;28;20107;-69
2021/01/13 01:11:10;;;;;;;7.07;0.90;;;2.30;99.90;;;;;;5094722;28;20028;-68
2021/01/13 01:13:37;;;;;;;9.27;1.00;;;2.30;99.90;;;;;;5091461;28;20031;-68
2021/01/13 01:16:03;;;;;;;8.77;1.05;;;2.40;99.90;;;;;;5083053;28;20415;-68
2021/01/13 01:18:28;;;;;;;8.70;0.85;;;2.30;99.90;;;;;;5094107;28;20032;-67
2021/01/13 01:20:54;;;;;;;13.32;1.50;;;2.40;99.90;;;;;;5094724;28;20027;-67
2021/01/13 01:23:19;;;;;;;6.13;0.90;;;2.40;99.90;;;;;;5093820;28;20104;-68
2021/01/13 01:25:45;;;;;;;9.88;2.53;;;2.40;99.90;;;;;;5094853;28;20420;-68
2021/01/13 01:28:11;;;;;;;4.15;1.30;;;2.40;99.90;;;;;;5080238;28;20067;-68
2021/01/13 01:30:36;;;;;;;8.10;1.17;;;2.40;99.90;;;;;;5073507;28;20480;-68
2021/01/13 01:33:02;;;;;;;7.97;1.20;;;2.50;99.90;;;;;;5077625;28;20021;-68
2021/01/13 01:35:28;;;;;;;7.32;1.00;;;2.60;99.90;;;;;;5079527;28;20047;-68
2021/01/13 01:37:53;;;;;;;7.38;0.73;;;2.70;99.90;;;;;;5079460;28;20040;-68
2021/01/13 01:40:20;;;;;;;8.30;1.10;;;2.80;99.90;;;;;;5094220;28;20040;-68
2021/01/13 01:42:50;;;;;;;10.07;1.92;;;3.00;99.90;;;;;;5094204;28;20050;-68
2021/01/13 01:45:42;;;;;;;;;;;3.10;99.90;;;;;;5084068;28;20070;-67
2021/01/13 01:48:26;;;;;;;0.50;0.28;;;3.20;99.90;;;;;;5091679;28;19915;-67
2021/01/13 01:50:57;;;;;;;4.70;0.60;;;3.30;99.90;;;;;;5093556;28;20086;-67
2021/01/13 01:53:47;;;;;;;7.30;0.65;;;3.40;99.90;;;;;;5093879;28;20031;-67
2021/01/13 01:56:19;;;;;;;4.00;0.47;;;3.40;99.90;;;;;;5093683;28;20095;-69
2021/01/13 01:58:50;;;;;;;5.75;0.73;;;3.50;99.90;;;;;;5093404;28;20024;-67
2021/01/13 02:01:30;;;;;;;6.88;0.77;;;3.60;99.90;;;;;;5093241;28;20038;-68
2021/01/13 02:04:05;;;;;;;10.40;1.02;;;3.70;99.90;;;;;;5082718;28;20039;-67
2021/01/13 02:06:33;;;;;;;6.53;1.27;;;3.70;99.90;;;;;;5093193;28;20028;-68
2021/01/13 02:08:58;;;;;;;7.57;0.95;;;3.70;99.90;;;;;;5094117;28;20099;-68
2021/01/13 02:11:26;;;;;;;8.45;1.48;;;3.70;99.90;;;;;;5093143;28;20086;-68
2021/01/13 02:13:52;;;;;;;10.27;2.08;;;3.70;99.90;;;;;;5094297;28;20031;-68
2021/01/13 02:16:19;;;;;;;3.40;0.50;;;3.60;99.90;;;;;;5093921;28;20425;-68
2021/01/13 02:18:47;;;;;;;4.30;0.70;;;3.60;99.90;;;;;;5092817;28;20023;-68
2021/01/13 02:21:14;;;;;;;9.65;1.58;;;3.40;99.90;;;;;;5094322;28;20160;-67
2021/01/13 02:24:03;;;;;;;7.07;1.00;;;3.40;99.90;;;;;;5093653;28;20164;-68
2021/01/13 02:26:50;;;;;;;3.72;0.90;;;3.40;99.90;;;;;;5092547;28;20115;-68
2021/01/13 02:29:27;;;;;;;5.63;1.73;;;3.40;99.90;;;;;;5079866;28;20016;-67
2021/01/13 02:32:16;;;;;;;3.20;0.50;;;3.40;99.90;;;;;;5093393;28;20093;-67
2021/01/13 02:34:50;;;;;;;8.98;1.95;;;3.50;99.90;;;;;;5092364;28;20142;-68
2021/01/13 02:37:33;;;;;;;10.05;1.40;;;3.50;99.90;;;;;;5078731;28;20101;-69
2021/01/13 02:40:04;;;;;;;3.83;1.08;;;3.70;99.90;;;;;;5092781;28;20114;-68
2021/01/13 02:42:32;;;;;;;;;;;3.70;99.90;;;;;;5093307;28;20436;-68
2021/01/13 02:45:08;;;;;;;5.32;1.20;;;3.60;99.90;;;;;;5093190;28;19938;-68
2021/01/13 02:48:03;;;;;;;6.78;1.80;;;3.60;99.90;;;;;;5091982;28;20020;-68
2021/01/13 02:50:31;;;;;;;9.27;2.40;;;3.60;99.90;;;;;;5092884;28;20024;-68
2021/01/13 02:53:08;;;;;;;7.60;1.85;;;3.50;99.90;;;;;;5092889;28;20405;-68
2021/01/13 02:55:38;;;;;;;5.53;1.10;;;3.50;99.90;;;;;;5092273;28;20157;-68
2021/01/13 02:58:10;;;;;;;20.88;4.10;;;3.40;99.90;;;;;;5092831;28;20415;-68
2021/01/13 03:00:36;;;;;;;13.52;4.28;;;3.30;99.90;;;;;;5091835;28;20497;-68
2021/01/13 03:03:03;;;;;;;5.45;1.92;;;3.30;99.90;;;;;;5092771;28;20020;-68
2021/01/13 03:05:28;;;;;;;6.78;1.40;;;3.30;99.90;;;;;;5092846;28;20028;-68
2021/01/13 03:07:58;;;;;;;12.18;1.33;;;3.30;99.90;;;;;;5092297;28;20024;-68
2021/01/13 03:10:26;;;;;;;14.27;3.20;;;3.30;99.90;;;;;;5093074;28;20031;-68
2021/01/13 03:13:03;;;;;;;10.57;1.23;;;3.40;99.90;;;;;;5092444;28;20047;-68
2021/01/13 03:15:31;;;;;;;7.38;1.55;;;3.30;99.90;;;;;;5091869;28;20024;-68
2021/01/13 03:18:05;;;;;;;7.78;1.13;;;3.40;99.90;;;;;;5092640;28;20032;-68
2021/01/13 03:20:43;;;;;;;17.55;4.05;;;3.40;99.90;;;;;;5092352;28;20380;-68
2021/01/13 03:23:21;;;;;;;11.75;1.63;;;3.40;99.90;;;;;;5091663;28;20035;-68
2021/01/13 03:25:57;;;;;;;6.57;1.10;;;3.30;99.90;;;;;;5092498;28;20032;-68
2021/01/13 03:28:25;;;;;;;12.57;1.52;;;3.20;99.90;;;;;;5092112;28;20031;-68
2021/01/13 03:30:52;;;;;;;11.13;1.95;;;3.20;99.90;;;;;;5090858;28;20352;-68
2021/01/13 03:33:24;;;;;;;16.02;2.00;;;3.20;99.90;;;;;;5091864;28;20442;-68
2021/01/13 03:36:00;;;;;;;7.85;1.58;;;3.10;99.90;;;;;;5087237;28;20115;-68
2021/01/13 03:38:29;;;;;;;18.52;3.17;;;3.10;99.90;;;;;;5083563;28;20088;-68
2021/01/13 03:41:06;;;;;;;5.63;1.90;;;3.10;99.90;;;;;;5092298;28;20029;-68
2021/01/13 03:43:37;;;;;;;4.93;1.80;;;3.10;99.90;;;;;;5091274;28;20035;-68
2021/01/13 03:46:03;;;;;;;;;;;3.00;99.90;;;;;;5092329;28;20024;-68
2021/01/13 03:48:48;;;;;;;15.43;2.20;;;3.00;99.90;;;;;;5091591;28;19908;-69
2021/01/13 03:51:26;;;;;;;12.50;3.10;;;3.00;99.90;;;;;;5090619;28;20465;-68
2021/01/13 03:53:59;;;;;;;16.30;2.25;;;3.10;99.90;;;;;;5091923;28;20040;-69
2021/01/13 03:56:26;;;;;;;14.65;3.30;;;3.10;99.90;;;;;;5091595;28;20054;-69
2021/01/13 03:58:52;;;;;;;12.55;3.90;;;3.00;99.90;;;;;;5091008;28;20529;-69
2021/01/13 04:01:24;;;;;;;17.60;4.03;;;3.10;99.90;;;;;;5077307;28;20035;-68
2021/01/13 04:03:55;;;;;;;8.35;3.20;;;3.00;99.90;;;;;;5091194;28;20024;-69
2021/01/13 04:06:21;;;;;;;8.30;1.80;;;3.00;99.90;;;;;;5091323;28;20024;-69
2021/01/13 04:08:48;;;;;;;7.28;1.42;;;2.90;99.90;;;;;;5091624;28;20024;-69
2021/01/13 04:11:18;;;;;;;14.18;3.25;;;2.90;99.90;;;;;;5090283;28;20058;-69
2021/01/13 04:13:52;;;;;;;20.25;2.55;;;2.90;99.90;;;;;;5091592;28;20024;-69
2021/01/13 04:16:21;;;;;;;8.85;1.38;;;2.90;99.90;;;;;;5091055;28;20475;-68
2021/01/13 04:18:49;;;;;;;8.25;1.73;;;2.80;99.90;;;;;;5090906;28;20169;-68
2021/01/13 04:21:17;;;;;;;13.90;3.28;;;2.90;99.90;;;;;;5091196;28;20511;-69
2021/01/13 04:23:44;;;;;;;17.20;1.75;;;2.80;99.90;;;;;;5091364;28;20020;-70
2021/01/13 04:26:11;;;;;;;7.78;1.50;;;2.80;99.90;;;;;;5090873;28;20121;-69
2021/01/13 04:28:37;;;;;;;7.30;1.63;;;2.80;99.90;;;;;;5090996;28;20040;-68
2021/01/13 04:31:04;;;;;;;12.32;2.03;;;2.80;99.90;;;;;;5090983;28;20344;-69
2021/01/13 04:33:30;;;;;;;8.98;2.08;;;2.80;99.90;;;;;;5090092;28;20023;-68
2021/01/13 04:35:56;;;;;;;15.23;2.50;;;2.80;99.90;;;;;;5085914;28;20052;-69
2021/01/13 04:38:32;;;;;;;10.60;1.38;;;2.80;99.90;;;;;;5081394;28;20023;-69
2021/01/13 04:41:12;;;;;;;18.55;1.75;;;2.80;99.90;;;;;;5090672;28;20026;-68
2021/01/13 04:43:58;;;;;;;11.88;1.73;;;2.70;99.90;;;;;;5091379;28;20376;-69
2021/01/13 04:46:39;;;;;;;14.65;1.30;;;2.70;99.90;;;;;;5076654;28;20099;-69
2021/01/13 04:49:08;;;;;;;11.13;2.28;;;2.70;99.90;;;;;;5090619;28;20024;-68
2021/01/13 04:51:36;;;;;;;22.88;3.35;;;2.80;99.90;;;;;;5090750;28;20127;-68
2021/01/13 04:54:15;;;;;;;16.48;2.75;;;2.80;99.90;;;;;;5090037;28;20098;-68
2021/01/13 04:57:12;;;;;;;11.75;1.58;;;2.90;99.90;;;;;;5090747;28;20483;-68
2021/01/13 05:00:11;;;;;;;13.52;1.60;;;2.80;99.90;;;;;;5090814;28;20028;-69
2021/01/13 05:03:04;;;;;;;9.02;1.33;;;2.80;99.90;;;;;;5090433;28;20028;-69
2021/01/13 05:05:31;;;;;;;12.20;1.50;;;2.70;99.90;;;;;;5090369;28;20329;-69
2021/01/13 05:08:28;;;;;;;5.95;1.33;;;2.70;99.90;;;;;;5090034;28;20416;-69
2021/01/13 05:11:08;;;;;;;5.18;2.00;;;2.60;99.90;;;;;;5090488;28;20028;-69
2021/01/13 05:13:34;;;;;;;8.93;2.42;;;2.50;99.90;;;;;;5090326;28;20032;-69
2021/01/13 05:16:11;;;;;;;6.78;1.80;;;2.50;99.90;;;;;;5090044;28;20058;-68
2021/01/13 05:18:57;;;;;;;11.50;1.65;;;2.40;99.90;;;;;;5090485;28;20032;-69
2021/01/13 05:21:26;;;;;;;8.90;1.30;;;2.40;99.90;;;;;;5089438;28;20073;-68
2021/01/13 05:23:56;;;;;;;8.38;1.50;;;2.40;99.90;;;;;;5090510;28;20145;-69
2021/01/13 05:26:24;;;;;;;14.70;1.35;;;2.30;99.90;;;;;;5090007;28;20099;-69
2021/01/13 05:29:04;;;;;;;15.90;1.98;;;2.40;99.90;;;;;;5090027;28;20170;-68
2021/01/13 05:31:34;;;;;;;9.57;2.63;;;2.40;99.90;;;;;;5090273;28;20020;-68
2021/01/13 05:34:04;;;;;;;10.30;2.45;;;2.40;99.90;;;;;;5090064;28;20083;-68
2021/01/13 05:36:31;;;;;;;10.30;1.80;;;2.40;99.90;;;;;;5079730;28;20036;-67
2021/01/13 05:39:05;;;;;;;5.40;1.17;;;2.40;99.90;;;;;;5085943;28;20058;-67
2021/01/13 05:41:31;;;;;;;9.80;1.20;;;2.40;99.90;;;;;;5090517;28;20024;-68
2021/01/13 05:43:57;;;;;;;9.10;1.67;;;2.40;99.90;;;;;;5089613;28;20115;-67
2021/01/13 05:46:22;;;;;;;8.70;2.15;;;2.50;99.90;;;;;;5089864;28;20476;-70
2021/01/13 05:48:53;;;;;;;4.55;1.42;;;2.50;99.90;;;;;;5090363;28;20024;-68
2021/01/13 05:51:31;;;;;;;19.42;2.05;;;2.60;99.90;;;;;;5089027;28;20020;-68
2021/01/13 05:53:57;;;;;;;7.30;1.58;;;2.50;99.90;;;;;;5091853;28;20034;-67
2021/01/13 05:56:23;;;;;;;12.15;1.80;;;2.60;99.90;;;;;;5093396;28;20020;-68
2021/01/13 05:59:05;;;;;;;14.35;1.80;;;2.60;99.90;;;;;;5094456;28;20024;-67
2021/01/13 06:01:41;;;;;;;14.63;1.95;;;2.70;99.90;;;;;;5093445;28;20016;-67
2021/01/13 06:04:08;;;;;;;13.00;2.13;;;2.70;99.90;;;;;;5093460;28;20043;-67
2021/01/13 06:06:40;;;;;;;14.18;2.50;;;2.70;99.90;;;;;;5093521;28;20046;-68
2021/01/13 06:09:06;;;;;;;8.50;2.55;;;2.70;99.90;;;;;;5094034;28;20078;-68
2021/01/13 06:11:35;;;;;;;13.23;2.05;;;2.70;99.90;;;;;;5092548;28;20457;-67
2021/01/13 06:14:05;;;;;;;20.20;2.75;;;2.70;99.90;;;;;;5093755;28;20032;-67
2021/01/13 06:16:32;;;;;;;11.95;4.38;;;2.60;99.90;;;;;;5093234;28;20027;-67
2021/01/13 06:18:57;;;;;;;14.70;4.82;;;2.60;99.90;;;;;;5093094;28;20069;-67
2021/01/13 06:21:23;;;;;;;7.78;3.97;;;2.70;99.90;;;;;;5093249;28;20052;-67
2021/01/13 06:23:50;;;;;;;18.45;4.93;;;2.80;99.90;;;;;;5093474;28;20067;-67
2021/01/13 06:26:17;;;;;;;7.70;4.07;;;2.80;99.90;;;;;;5092503;28;20032;-68
2021/01/13 06:28:58;;;;;;;14.85;4.20;;;2.70;99.90;;;;;;5093098;28;20493;-68
2021/01/13 06:31:25;;;;;;;;;;;2.70;99.90;;;;;;5093728;28;20024;-67
2021/01/13 06:34:09;;;;;;;9.02;4.63;;;2.70;99.90;;;;;;5088261;28;20360;-68
2021/01/13 06:36:53;;;;;;;12.65;3.50;;;2.70;99.90;;;;;;5072387;28;20028;-68
2021/01/13 06:39:20;;;;;;;9.43;2.25;;;2.70;99.90;;;;;;5075885;28;20032;-67
2021/01/13 06:41:49;;;;;;;9.40;1.98;;;2.70;99.90;;;;;;5072261;28;20491;-67
2021/01/13 06:44:16;;;;;;;9.23;3.47;;;2.70;99.90;;;;;;5071969;28;20024;-68
2021/01/13 06:46:42;;;;;;;12.60;3.40;;;2.70;99.90;;;;;;5075107;28;20040;-67
2021/01/13 06:49:21;;;;;;;9.57;2.47;;;2.70;99.90;;;;;;5077921;28;20020;-68
2021/01/13 06:51:49;;;;;;;11.90;3.28;;;2.70;99.90;;;;;;5071811;28;20047;-68
2021/01/13 06:54:16;;;;;;;14.25;2.20;;;2.80;99.90;;;;;;5070793;28;20119;-67
2021/01/13 06:56:54;;;;;;;14.93;1.42;;;2.80;99.90;;;;;;5071914;28;20047;-67
2021/01/13 06:59:22;;;;;;;12.20;1.95;;;2.80;99.90;;;;;;5071348;28;20448;-68
2021/01/13 07:01:52;;;;;;;9.68;1.60;;;2.80;99.90;;;;;;5071310;28;20029;-68
2021/01/13 07:04:18;;;;;;;14.98;1.80;;;2.70;99.90;;;;;;5073893;28;20037;-70
2021/01/13 07:07:07;;;;;;;6.65;1.55;;;2.70;99.90;;;;;;5071364;28;20475;-69
2021/01/13 07:09:37;;;;;;;6.88;2.03;;;2.70;99.90;;;;;;5071542;28;20090;-69
2021/01/13 07:12:11;;;;;;;12.48;1.20;;;2.70;99.90;;;;;;5071606;28;20024;-67
2021/01/13 07:14:42;;;;;;;5.65;1.20;;;2.70;99.90;;;;;;5073511;28;20048;-68
2021/01/13 07:17:10;;;;;;;12.23;1.70;;;2.70;99.90;;;;;;5088334;28;20513;-68
2021/01/13 07:19:37;;;;;;;8.88;1.58;;;2.80;99.90;;;;;;5090112;28;20480;-68
2021/01/13 07:22:04;;;;;;;4.40;1.15;;;2.90;99.90;;;;;;5090718;28;20047;-68
2021/01/13 07:24:30;;;;;;;3.25;0.88;;;2.90;99.90;;;;;;5090918;28;20063;-70
2021/01/13 07:27:00;;;;;;;10.13;1.30;;;2.90;99.90;;;;;;5086080;28;20733;-69
2021/01/13 07:29:26;;;;;;;13.23;1.65;;;3.00;99.90;;;;;;5085624;28;20106;-69
2021/01/13 07:31:55;;;;;;;17.67;1.42;;;3.00;99.90;;;;;;5087205;28;20574;-69
2021/01/13 07:34:30;;;;;;;12.27;1.50;;;2.90;99.90;;;;;;5089328;28;20040;-68
2021/01/13 07:37:00;;;;;;;5.00;0.80;;;2.90;99.90;;;;;;5076353;28;20036;-68
2021/01/13 07:40:03;;;;;;;11.98;1.60;;;3.00;99.90;;;;;;5090283;28;20112;-68
2021/01/13 07:42:36;;;;;;;9.20;1.30;;;3.00;99.90;;;;;;5086347;28;20029;-68
2021/01/13 07:45:19;;;;;;;8.90;1.60;;;3.10;99.90;;;;;;5080309;28;20089;-69
2021/01/13 07:48:10;;;;;;;6.35;1.25;;;3.10;99.90;;;;;;5089167;28;20066;-67
2021/01/13 07:50:41;;;;;;;9.70;1.40;;;3.20;99.90;;;;;;5090236;28;20268;-67
2021/01/13 07:53:30;;;;;;;4.82;1.42;;;3.10;99.90;;;;;;5086606;28;20020;-67
2021/01/13 07:56:02;;;;;;;10.35;2.10;;;3.20;99.90;;;;;;5086674;28;20527;-67
2021/01/13 07:58:30;;;;;;;5.90;1.40;;;3.20;99.90;;;;;;5087484;28;20051;-68
2021/01/13 08:01:36;;;;;;;9.65;0.90;;;3.20;99.90;;;;;;5089964;28;20028;-67
2021/01/13 08:04:34;;;;;;;11.00;1.83;;;3.10;99.90;;;;;;5089806;28;20016;-67
2021/01/13 08:07:01;;;;;;;9.45;1.70;;;3.20;99.90;;;;;;5063015;28;20032;-67
2021/01/13 08:09:33;;;;;;;4.18;1.27;;;3.20;99.90;;;;;;5087741;28;20395;-67
2021/01/13 08:12:13;;;;;;;3.90;1.17;;;3.20;99.90;;;;;;5088570;28;20031;-67
2021/01/13 08:15:13;;;;;;;6.23;1.57;;;3.20;99.90;;;;;;5084076;28;20029;-68
2021/01/13 08:17:46;;;;;;;8.70;3.00;;;3.20;99.90;;;;;;5088785;28;20024;-67
2021/01/13 08:20:33;;;;;;;5.22;2.80;;;3.30;99.90;;;;;;5072437;28;20017;-67
2021/01/13 08:23:16;;;;;;;10.10;2.10;;;3.30;99.90;;;;;;5071342;28;20021;-67
2021/01/13 08:25:53;;;;;;;10.07;1.17;;;3.30;99.90;;;;;;5070788;28;20040;-68
2021/01/13 08:28:20;;;;;;;7.55;1.42;;;3.30;99.90;;;;;;5076810;28;20108;-68
2021/01/13 08:30:49;;;;;;;6.10;0.90;;;3.40;99.90;;;;;;5091564;28;20032;-68
2021/01/13 08:33:25;;;;;;;8.07;0.85;;;3.40;99.90;;;;;;5084519;28;20024;-67
2021/01/13 08:36:01;;;;;;;5.72;1.67;;;3.40;99.90;;;;;;5083662;28;20040;-68
2021/01/13 08:38:27;;;;;;;9.23;1.38;;;3.40;99.90;;;;;;5076430;28;20060;-67
2021/01/13 08:40:54;;;;;;;6.97;1.20;;;3.40;99.90;;;;;;5084096;28;20054;-67
2021/01/13 08:43:22;;;;;;;7.78;0.80;;;3.40;99.90;;;;;;5091588;28;20030;-67
2021/01/13 08:45:50;;;;;;;11.15;1.35;;;3.50;99.90;;;;;;5091854;28;20043;-67
2021/01/13 08:48:22;;;;;;;8.35;1.27;;;3.60;99.90;;;;;;5091301;28;20020;-67
2021/01/13 08:51:03;;;;;;;3.08;1.08;;;3.70;99.90;;;;;;5091910;28;20031;-67
2021/01/13 08:53:29;;;;;;;9.23;1.40;;;3.70;99.90;;;;;;5090776;28;20020;-67
2021/01/13 08:55:55;;;;;;;5.10;1.35;;;3.80;99.90;;;;;;5091802;28;20027;-66
2021/01/13 08:58:34;;;;;;;4.45;1.45;;;3.80;99.90;;;;;;5090964;28;20793;-66
2021/01/13 09:01:10;;;;;;;10.98;2.05;;;3.80;99.90;;;;;;5091108;28;20027;-67
2021/01/13 09:03:40;;;;;;;12.02;1.17;;;3.80;99.90;;;;;;5091478;28;20031;-67
2021/01/13 09:06:21;;;;;;;8.40;1.73;;;3.90;99.90;;;;;;5089380;28;20040;-68
2021/01/13 09:08:48;;;;;;;;;;;3.90;99.90;;;;;;5092119;28;20028;-67
2021/01/13 09:11:31;;;;;;;7.97;1.77;;;4.00;99.90;;;;;;5091022;28;20360;-68
2021/01/13 09:14:15;;;;;;;4.53;1.00;;;4.00;99.90;;;;;;5091124;28;20053;-67
2021/01/13 09:16:56;;;;;;;9.30;1.60;;;4.00;99.90;;;;;;5091222;28;20484;-67
2021/01/13 09:19:34;;;;;;;13.30;1.90;;;4.10;99.90;;;;;;5090099;28;20099;-67
2021/01/13 09:22:01;;;;;;;5.95;1.02;;;4.10;99.90;;;;;;5070713;28;20055;-67
2021/01/13 09:24:34;;;;;;;6.47;0.85;;;4.00;99.90;;;;;;5082304;28;20464;-68
2021/01/13 09:27:03;;;;;;;9.15;1.55;;;4.00;99.90;;;;;;5086187;28;20086;-68
2021/01/13 09:29:50;;;;;;;10.38;1.50;;;4.00;99.90;;;;;;5072001;28;20035;-68
2021/01/13 09:32:17;;;;;;;11.50;1.52;;;4.00;99.90;;;;;;5085069;28;20017;-68
2021/01/13 09:34:43;;;;;;;4.45;1.30;;;4.00;99.90;;;;;;5088389;28;20040;-67
2021/01/13 09:37:09;;;;;;;7.95;1.60;;;4.10;99.90;;;;;;5075679;28;20039;-68
2021/01/13 09:39:53;;;;;;;6.15;1.52;;;4.20;99.90;;;;;;5093584;28;20024;-68
2021/01/13 09:42:22;;;;;;;3.95;1.55;;;4.30;99.90;;;;;;5094565;28;20052;-68
2021/01/13 09:44:59;;;;;;;10.20;1.60;;;4.40;99.90;;;;;;5095111;28;20126;-68
2021/01/13 09:47:25;;;;;;;6.35;1.58;;;4.40;99.90;;;;;;5095235;28;20016;-67
2021/01/13 09:49:57;;;;;;;9.82;1.33;;;4.40;99.90;;;;;;5093884;28;20077;-67
2021/01/13 09:52:24;;;;;;;10.00;1.63;;;4.40;99.90;;;;;;5095105;28;20016;-68
2021/01/13 09:54:52;;;;;;;4.68;1.40;;;4.40;99.90;;;;;;5094889;28;20444;-68
2021/01/13 09:57:19;;;;;;;18.42;1.38;;;4.40;99.90;;;;;;5094042;28;20082;-68
2021/01/13 10:00:03;;;;;;;10.52;1.77;;;4.50;99.90;;;;;;5095327;28;20077;-67
2021/01/13 10:02:29;;;;;;;5.47;1.35;;;4.50;99.90;;;;;;5094831;28;20023;-67
2021/01/13 10:04:56;;;;;;;8.45;1.85;;;4.60;99.90;;;;;;5095149;28;20061;-68
2021/01/13 10:07:23;;;;;;;7.95;3.05;;;4.70;99.90;;;;;;5094430;28;20020;-67
2021/01/13 10:09:49;;;;;;;14.57;2.58;;;4.80;99.90;;;;;;5095137;28;20053;-66
2021/01/13 10:12:16;;;;;;;9.15;1.63;;;4.80;99.90;;;;;;5094481;28;20468;-68
2021/01/13 10:14:51;;;;;;;12.45;2.53;;;4.90;99.90;;;;;;5084910;28;20040;-67
2021/01/13 10:17:27;;;;;;;8.88;2.28;;;4.90;99.90;;;;;;5090252;28;20016;-66
2021/01/13 10:19:53;;;;;;;8.05;1.63;;;5.00;99.90;;;;;;5094806;28;20110;-66
2021/01/13 10:22:25;;;;;;;12.57;2.78;;;5.10;99.90;;;;;;5094995;28;20028;-68
2021/01/13 10:24:51;;;;;;;9.15;2.30;;;5.10;99.90;;;;;;5094201;28;20074;-66
2021/01/13 10:27:18;;;;;;;7.82;1.98;;;5.30;99.90;;;;;;5094119;28;20418;-66
2021/01/13 10:29:45;;;;;;;10.80;1.48;;;5.30;99.90;;;;;;5094728;28;20028;-66
2021/01/13 10:32:11;;;;;;;7.72;1.50;;;5.30;99.90;;;;;;5093655;28;20024;-66
2021/01/13 10:34:37;;;;;;;12.02;2.55;;;5.30;99.90;;;;;;5093103;28;20040;-66
2021/01/13 10:37:02;;;;;;;9.55;1.63;;;5.40;99.90;;;;;;5080255;28;20036;-66
2021/01/13 10:39:28;;;;;;;9.48;1.80;;;5.60;99.90;;;;;;5078573;28;20024;-66
2021/01/13 10:41:55;;;;;;;21.08;2.45;;;5.60;99.90;;;;;;5094010;28;20027;-65
2021/01/13 10:44:27;;;;;;;8.70;1.70;;;5.70;99.90;;;;;;5093648;28;20036;-67
2021/01/13 10:46:53;;;;;;;9.10;1.40;;;5.80;99.90;;;;;;5093507;28;20070;-67
2021/01/13 10:49:20;;;;;;;7.72;2.30;;;5.80;99.90;;;;;;5093162;28;20161;-66
2021/01/13 10:51:48;;;;;;;5.55;1.42;;;5.90;99.90;;;;;;5093162;28;20025;-67
2021/01/13 10:54:17;;;;;;;7.07;1.15;;;6.00;99.90;;;;;;5075825;28;20027;-67
2021/01/13 10:56:44;;;;;;;16.30;1.73;;;6.00;99.90;;;;;;5073609;28;20111;-67
2021/01/13 10:59:17;;;;;;;12.50;1.90;;;6.10;99.90;;;;;;5077328;28;20540;-66
2021/01/13 11:01:47;;;;;;;8.57;2.60;;;6.10;99.90;;;;;;5093856;28;20452;-67
2021/01/13 11:04:33;;;;;;;8.75;1.58;;;6.10;99.90;;;;;;5092899;28;20036;-67
2021/01/13 11:07:06;;;;;;;9.07;1.42;;;6.20;99.90;;;;;;5079188;28;20038;-68
2021/01/13 11:09:34;;;;;;;8.30;2.08;;;6.20;99.90;;;;;;5072354;28;20021;-67
2021/01/13 11:12:00;;;;;;;8.88;1.40;;;6.20;99.90;;;;;;5072246;28;20020;-66
2021/01/13 11:14:30;;;;;;;8.45;1.98;;;6.20;99.90;;;;;;5071508;28;20035;-67
2021/01/13 11:17:03;;;;;;;6.30;1.90;;;6.20;99.90;;;;;;5072784;28;20056;-67
2021/01/13 11:19:30;;;;;;;4.57;1.40;;;6.20;99.90;;;;;;5072188;28;20017;-69
2021/01/13 11:21:56;;;;;;;8.77;1.80;;;6.20;99.90;;;;;;5071782;28;20020;-66
2021/01/13 11:24:30;;;;;;;4.93;1.30;;;6.20;99.90;;;;;;5074173;28;20035;-68
2021/01/13 11:26:58;;;;;;;7.78;1.50;;;6.20;99.90;;;;;;5071732;28;20052;-69
2021/01/13 11:29:28;;;;;;;9.77;1.58;;;6.20;99.90;;;;;;5072494;28;20396;-70
2021/01/13 11:31:54;;;;;;;6.77;1.07;;;6.20;99.90;;;;;;5089781;28;20387;-68
2021/01/13 11:34:21;;;;;;;4.78;1.00;;;6.30;99.90;;;;;;5092238;28;20020;-68
2021/01/13 11:37:01;;;;;;;6.93;1.48;;;6.30;99.90;;;;;;5080591;28;20425;-68
2021/01/13 11:39:31;;;;;;;7.97;1.77;;;6.30;99.90;;;;;;5092667;28;20020;-67
2021/01/13 11:42:11;;;;;;;7.88;1.17;;;6.30;99.90;;;;;;5092618;28;20032;-68
2021/01/13 11:44:39;;;;;;;7.65;1.35;;;6.40;99.90;;;;;;5092741;28;20043;-67
2021/01/13 11:47:07;;;;;;;6.93;1.25;;;6.40;99.90;;;;;;5092942;28;20032;-67
2021/01/13 11:49:32;;;;;;;15.30;3.13;;;6.50;99.90;;;;;;5091153;28;20035;-67
2021/01/13 11:52:06;;;;;;;7.07;0.90;;;6.50;99.90;;;;;;5088264;28;20028;-68
2021/01/13 11:54:32;;;;;;;4.03;1.02;;;6.50;99.90;;;;;;5089806;28;20035;-67
2021/01/13 11:57:20;;;;;;;3.88;1.10;;;6.60;99.90;;;;;;5088413;28;20024;-67
2021/01/13 11:59:46;;;;;;;9.50;1.17;;;6.60;99.90;;;;;;5088263;28;20062;-68
2021/01/13 12:02:20;;;;;;;10.05;2.72;;;6.50;99.90;;;;;;5089835;28;20147;-68
2021/01/13 12:04:47;;;;;;;11.02;1.42;;;6.60;99.90;;;;;;5088137;28;20043;-69
2021/01/13 12:07:13;;;;;;;7.85;1.08;;;6.60;99.90;;;;;;5087354;28;20521;-69
2021/01/13 12:09:39;;;;;;;9.00;1.50;;;6.60;99.90;;;;;;5088222;28;20032;-68
2021/01/13 12:12:05;;;;;;;7.72;1.33;;;6.60;99.90;;;;;;5089725;28;20048;-68
2021/01/13 12:14:42;;;;;;;7.47;1.27;;;6.60;99.90;;;;;;5088322;28;20031;-68
2021/01/13 12:17:08;;;;;;;7.93;1.50;;;6.70;99.90;;;;;;5089875;28;20024;-67
2021/01/13 12:19:41;;;;;;;8.45;1.65;;;6.70;99.90;;;;;;5090537;28;20054;-69
2021/01/13 12:22:08;;;;;;;12.55;1.70;;;6.70;99.90;;;;;;5089102;28;20031;-67
2021/01/13 12:24:42;;;;;;;10.13;1.67;;;6.70;99.90;;;;;;5072402;28;20101;-69
2021/01/13 12:27:25;;;;;;;11.23;1.33;;;6.70;99.90;;;;;;5071678;28;20017;-69
2021/01/13 12:30:10;;;;;;;5.35;1.70;;;6.70;99.90;;;;;;5071517;28;20468;-68
2021/01/13 12:32:37;;;;;;;7.65;1.65;;;6.70;99.90;;;;;;5071372;28;20032;-68
2021/01/13 12:35:03;;;;;;;6.40;1.88;;;6.80;99.90;;;;;;5071288;28;20097;-68
2021/01/13 12:37:29;;;;;;;8.30;1.55;;;6.70;99.90;;;;;;5074284;28;20024;-68
2021/01/13 12:39:58;;;;;;;8.68;2.40;;;6.70;99.90;;;;;;5091771;28;20045;-69
2021/01/13 12:42:30;;;;;;;3.00;1.40;;;6.70;99.90;;;;;;5091566;28;20058;-68
2021/01/13 12:44:59;;;;;;;6.20;1.40;;;6.80;99.90;;;;;;5091016;28;20032;-68
2021/01/13 12:47:26;;;;;;;7.88;1.77;;;6.90;99.90;;;;;;5077087;28;20031;-67
2021/01/13 12:49:52;;;;;;;11.45;1.60;;;6.90;99.90;;;;;;5091378;28;20107;-69
2021/01/13 12:52:18;;;;;;;9.38;2.10;;;6.90;99.90;;;;;;5090760;28;20034;-67
2021/01/13 12:54:44;;;;;;;4.75;1.10;;;6.80;99.90;;;;;;5091980;28;20348;-67
2021/01/13 12:57:10;;;;;;;7.07;1.27;;;6.80;99.90;;;;;;5090584;28;20036;-68
2021/01/13 12:59:36;;;;;;;15.85;2.00;;;6.70;99.90;;;;;;5086787;28;20044;-67
2021/01/13 13:02:01;;;;;;;7.60;1.45;;;6.60;99.90;;;;;;5072298;28;20052;-67
2021/01/13 13:04:27;;;;;;;13.10;1.75;;;6.50;99.90;;;;;;5071703;28;20370;-68
2021/01/13 13:06:53;;;;;;;6.05;1.83;;;6.40;99.90;;;;;;5071355;28;20342;-67
2021/01/13 13:09:18;;;;;;;9.13;1.80;;;6.30;99.90;;;;;;5075990;28;20440;-67
2021/01/13 13:11:45;;;;;;;3.92;1.20;;;6.30;99.90;;;;;;5086747;28;20020;-67
2021/01/13 13:14:12;;;;;;;7.28;1.58;;;6.20;99.90;;;;;;5087649;28;20016;-68
2021/01/13 13:16:41;;;;;;;7.45;1.60;;;6.20;99.90;;;;;;5084190;28;20039;-68